LZZI METAR and TAF | Updated Today

LZZI METAR

Žilina Airport

Observation time: 27 min. ago

LZZI 011600Z 24007KT 190V330 9999 OVC018 03/00 Q1011

Need help? Read our tutorial on how to read METARs or read the parsed version below.

Žilina Airport (LZZI) METAR

  • Weather conditions on Wed, 01 Feb 2023 16:00:00 +0000 (27 min. ago):
  • Present conditions: Dry
  • Clouds: Overcast sky at 549 meters
  • Visibility: Greater than 10 km
  • Wind: 240 degrees at 7 knots
  • Temperature: 3 celsius
  • Dew point: 0 celsius
  • Pressure: 1011 millibars
  • Remarks: None


Useful to know...

LZZI TAF

Žilina Airport

TAF LZZI 011415Z 0115/0200 22008KT 9999 BKN025 TEMPO 0115/0200 23015G25KT 2500 SHSNRA BKN008 BKN020
Observation time: 2:12 hr. ago
Need help? Read our tutorial on how to read TAFs or read the parsed version below.

Parsed version of TAF for Žilina Airport (LZZI)

  • From 01 February at 15:00 UTC, to day 02 of the month at 00:00 UTC
  • Clouds: Broken sky at 762 meters
  • Visibility: Greater than 10 km
  • Wind: 220 degrees at 8
  • Expected to arise temporarily, from 01 February at 15:00 UTC, to day 02 of the month at 00:00 UTC
  • Clouds: Broken sky at 244 meters; broken sky at 610 meters
  • Visibility: 2500 meters
  • Wind: 230 degrees at 15
  • Other: Showers of snow rain